Terminal Aerodrome Forecast
Issued by NWS Memphis, TN

Home | Current Version | Previous Version | Text Only | Print | Product List | Glossary On
Versions: 1 2 3 4 5 6 7 8 9 10 11 12 13 14 15 16 17 18 19 20 21 22 23 24
000
FTUS44 KMEG 160520
TAFMKL
TAF
KMKL 160520Z 1606/1706 16004KT P6SM SCT250
     FM161500 21012KT P6SM SCT035 BKN150
     FM161800 22012KT P6SM VCTS BKN050CB
     FM170400 21008KT P6SM OVC050=

USA.gov is the U.S. government's official web portal to all federal, state and local government web resources and services.